Time;durP1;ratioP1;P1;durP2;ratioP2;P2;SDS_P1;SDS_P2;PMS_P1;PMS_P2;Temp;Humidity;BMP_temperature;BMP_pressure;BME280_temperature;BME280_humidity;BME280_pressure;Samples;Min_cycle;Max_cycle;Signal;HPM_P1;HPM_P2
2022/09/11 00:00:17;;;;;;;20.30;7.30;;;;;;;18.99;98.47;100844.50;4992416;28;20408;-65
2022/09/11 00:02:43;;;;;;;18.10;7.70;;;;;;;18.99;98.24;100845.25;4972848;28;20089;-66
2022/09/11 00:05:09;;;;;;;19.13;7.90;;;;;;;18.97;98.02;100841.41;4990006;28;20034;-65
2022/09/11 00:07:34;;;;;;;18.15;7.95;;;;;;;18.93;97.99;100850.41;4991594;28;20056;-66
2022/09/11 00:10:00;;;;;;;18.70;7.05;;;;;;;18.92;97.73;100842.63;4987177;28;20030;-67
2022/09/11 00:12:25;;;;;;;23.20;7.93;;;;;;;18.89;97.44;100841.47;4990755;28;21572;-66
2022/09/11 00:14:51;;;;;;;24.20;7.82;;;;;;;18.85;97.31;100845.44;4989703;28;20062;-65
2022/09/11 00:17:17;;;;;;;23.60;8.02;;;;;;;18.76;97.26;100842.38;4991008;28;20042;-66
2022/09/11 00:19:42;;;;;;;18.35;7.20;;;;;;;18.74;97.21;100844.75;4988802;28;20030;-65
2022/09/11 00:22:08;;;;;;;21.40;7.90;;;;;;;18.67;96.82;100842.09;4990354;28;20383;-65
2022/09/11 00:24:34;;;;;;;20.20;7.57;;;;;;;18.63;97.00;100847.59;4990152;28;20037;-65
2022/09/11 00:26:59;;;;;;;19.23;7.25;;;;;;;18.58;96.59;100845.28;4986008;28;20149;-66
2022/09/11 00:29:25;;;;;;;21.80;9.05;;;;;;;18.50;97.04;100852.00;4985113;28;20092;-65
2022/09/11 00:31:51;;;;;;;23.02;8.38;;;;;;;18.52;97.57;100848.88;4973665;28;20490;-66
2022/09/11 00:34:17;;;;;;;20.85;8.63;;;;;;;18.47;97.69;100844.63;4987369;28;20041;-65
2022/09/11 00:36:43;;;;;;;21.40;7.78;;;;;;;18.50;97.79;100851.22;4998210;28;20524;-66
2022/09/11 00:39:13;;;;;;;23.08;8.38;;;;;;;18.49;98.12;100847.72;4991899;28;20035;-65
2022/09/11 00:41:41;;;;;;;18.98;8.15;;;;;;;18.51;98.14;100848.09;4952439;28;20026;-66
2022/09/11 00:44:27;;;;;;;24.45;8.77;;;;;;;18.56;98.57;100846.88;4989505;28;20074;-65
2022/09/11 00:46:55;;;;;;;25.90;8.68;;;;;;;18.65;98.94;100845.22;4971874;28;20042;-66
2022/09/11 00:49:29;;;;;;;21.58;8.23;;;;;;;18.72;98.78;100847.09;4970028;28;20049;-66
2022/09/11 00:52:04;;;;;;;21.38;8.48;;;;;;;18.75;98.93;100841.63;4972508;28;20519;-65
2022/09/11 00:54:34;;;;;;;23.83;8.55;;;;;;;18.73;99.02;100851.41;4968755;28;20038;-66
2022/09/11 00:57:05;;;;;;;25.08;8.38;;;;;;;18.77;99.09;100858.38;4986814;28;20053;-65
2022/09/11 00:59:33;;;;;;;22.80;7.80;;;;;;;18.76;99.34;100853.31;4956848;28;20584;-65
2022/09/11 01:01:59;;;;;;;22.58;9.35;;;;;;;18.80;99.53;100867.69;4967973;28;20029;-65
2022/09/11 01:04:24;;;;;;;21.30;8.10;;;;;;;18.79;99.25;100866.16;4989659;28;20372;-65
2022/09/11 01:06:53;;;;;;;25.05;9.48;;;;;;;18.75;99.62;100863.47;4990718;28;20053;-65
2022/09/11 01:09:19;;;;;;;25.30;8.10;;;;;;;18.75;100.00;100870.88;4989593;28;20399;-66
2022/09/11 01:12:01;;;;;;;23.50;7.75;;;;;;;18.88;99.54;100859.03;4972794;28;20038;-66
2022/09/11 01:15:02;;;;;;;20.80;8.05;;;;;;;18.85;99.64;100862.56;4987048;28;20759;-66
2022/09/11 01:17:46;;;;;;;20.87;7.30;;;;;;;18.79;99.59;100858.72;4969387;28;20581;-66
2022/09/11 01:20:43;;;;;;;19.95;7.93;;;;;;;18.81;99.59;100853.63;4955892;28;20034;-66
2022/09/11 01:23:23;;;;;;;21.88;7.82;;;;;;;18.81;99.64;100861.81;4993443;28;20534;-65
2022/09/11 01:26:31;;;;;;;24.20;8.30;;;;;;;18.84;99.49;100866.47;4993760;28;20038;-66
2022/09/11 01:29:19;;;;;;;18.90;7.03;;;;;;;18.76;99.75;100864.22;4974741;28;20113;-65
2022/09/11 01:32:00;;;;;;;22.85;7.07;;;;;;;18.79;99.72;100869.63;4994055;28;20061;-66
2022/09/11 01:34:31;;;;;;;15.65;6.38;;;;;;;18.79;99.98;100863.44;4989226;28;20050;-66
2022/09/11 01:37:04;;;;;;;16.50;7.60;;;;;;;18.86;99.97;100869.59;4970712;28;20038;-65
2022/09/11 01:39:37;;;;;;;19.58;7.10;;;;;;;18.89;99.63;100859.81;4991691;28;20063;-66
2022/09/11 01:42:06;;;;;;;23.08;7.15;;;;;;;18.92;99.38;100861.72;4976048;28;20042;-65
2022/09/11 01:44:42;;;;;;;19.25;6.78;;;;;;;18.89;99.65;100859.81;4958915;28;20509;-66
2022/09/11 01:47:11;;;;;;;20.27;6.18;;;;;;;18.85;99.96;100864.53;4972848;28;20506;-66
2022/09/11 01:49:43;;;;;;;18.65;6.47;;;;;;;18.86;99.89;100868.81;4976898;28;20811;-65
2022/09/11 01:52:14;;;;;;;21.92;7.15;;;;;;;18.91;99.87;100877.31;4975981;28;20042;-66
2022/09/11 01:54:48;;;;;;;18.77;6.43;;;;;;;18.85;99.90;100870.00;4991874;28;20045;-66
2022/09/11 01:57:23;;;;;;;17.88;6.45;;;;;;;18.87;100.00;100881.28;4975179;28;20117;-65
2022/09/11 01:59:57;;;;;;;19.83;7.53;;;;;;;18.86;100.00;100877.78;4988752;28;20435;-66
2022/09/11 02:02:33;;;;;;;25.27;7.93;;;;;;;18.89;100.00;100871.50;4987616;28;20033;-65
2022/09/11 02:05:06;;;;;;;20.52;7.50;;;;;;;18.92;99.69;100878.09;4976602;28;20038;-66
2022/09/11 02:07:48;;;;;;;17.92;5.95;;;;;;;18.88;99.50;100877.38;4975747;28;20030;-65
2022/09/11 02:10:39;;;;;;;16.73;6.18;;;;;;;18.92;99.44;100889.03;4988703;28;20546;-66
2022/09/11 02:13:13;;;;;;;19.95;5.47;;;;;;;18.90;99.49;100875.78;4973760;28;20035;-66
2022/09/11 02:15:45;;;;;;;15.55;4.88;;;;;;;18.82;99.38;100887.16;4967589;28;20161;-65
2022/09/11 02:18:20;;;;;;;;;;;;;;;18.81;99.47;100889.13;4986551;28;20038;-65
2022/09/11 02:20:46;;;;;;;13.30;5.10;;;;;;;18.76;99.79;100883.31;4970779;28;19941;-67
2022/09/11 02:23:14;;;;;;;17.02;5.80;;;;;;;18.83;99.65;100875.09;4994535;28;20038;-66
2022/09/11 02:25:40;;;;;;;15.75;4.88;;;;;;;18.80;99.66;100886.78;4969815;28;20030;-65
2022/09/11 02:28:05;;;;;;;13.57;4.20;;;;;;;18.83;99.76;100883.28;4973617;28;20030;-66
2022/09/11 02:30:31;;;;;;;15.80;5.63;;;;;;;18.74;100.00;100888.41;4989078;28;20317;-66
2022/09/11 02:32:57;;;;;;;16.00;5.03;;;;;;;18.79;100.00;100898.91;4971829;28;20042;-66
2022/09/11 02:35:32;;;;;;;14.52;4.63;;;;;;;18.71;99.94;100891.97;4976457;28;20495;-65
2022/09/11 02:38:18;;;;;;;12.13;4.38;;;;;;;18.66;100.00;100893.16;4989056;28;20082;-66
2022/09/11 02:41:03;;;;;;;12.50;4.78;;;;;;;18.62;100.00;100903.31;4987336;28;20106;-65
2022/09/11 02:43:44;;;;;;;13.27;4.45;;;;;;;18.64;100.00;100902.94;4969665;28;20042;-66
2022/09/11 02:46:42;;;;;;;10.25;3.47;;;;;;;18.64;100.00;100906.44;4976964;28;20169;-66
2022/09/11 02:49:18;;;;;;;14.00;4.57;;;;;;;18.64;100.00;100906.44;4974150;28;20030;-66
2022/09/11 02:51:49;;;;;;;15.25;5.32;;;;;;;18.63;100.00;100910.34;4991486;28;20399;-66
2022/09/11 02:54:41;;;;;;;19.13;4.90;;;;;;;18.67;99.99;100910.31;4974537;28;20120;-66
2022/09/11 02:57:18;;;;;;;15.13;4.65;;;;;;;18.60;100.00;100913.88;4947337;28;20537;-66
2022/09/11 02:59:52;;;;;;;14.52;5.15;;;;;;;18.68;100.00;100920.03;4984802;28;20031;-66
2022/09/11 03:02:17;;;;;;;11.95;4.28;;;;;;;18.65;100.00;100927.09;4973802;28;20026;-66
2022/09/11 03:04:44;;;;;;;11.13;4.28;;;;;;;18.65;100.00;100912.66;4969806;28;20026;-65
2022/09/11 03:07:10;;;;;;;14.63;5.47;;;;;;;18.71;100.00;100930.16;4977976;28;20576;-65
2022/09/11 03:09:36;;;;;;;11.18;3.63;;;;;;;18.68;99.78;100925.50;4991502;28;20085;-67
2022/09/11 03:12:08;;;;;;;11.48;4.28;;;;;;;18.65;100.00;100932.56;4978896;28;20058;-67
2022/09/11 03:14:37;;;;;;;18.75;4.20;;;;;;;18.67;100.00;100932.94;4986815;28;20197;-65
2022/09/11 03:17:03;;;;;;;15.68;4.55;;;;;;;18.67;100.00;100929.41;4976951;28;20026;-65
2022/09/11 03:19:29;;;;;;;11.65;4.35;;;;;;;18.60;100.00;100932.22;4973830;28;20038;-65
2022/09/11 03:21:55;;;;;;;12.73;4.43;;;;;;;18.52;100.00;100930.72;4973830;28;20045;-66
2022/09/11 03:24:21;;;;;;;13.38;4.22;;;;;;;18.56;100.00;100937.66;4990590;28;20041;-65
2022/09/11 03:26:47;;;;;;;16.35;4.85;;;;;;;18.53;100.00;100935.75;4976526;28;20400;-66
2022/09/11 03:29:15;;;;;;;16.27;4.80;;;;;;;18.53;100.00;100932.25;5003665;23;20158;-71
2022/09/11 03:31:41;;;;;;;16.70;5.07;;;;;;;18.55;100.00;100938.06;5031268;28;20096;-68
2022/09/11 03:34:07;;;;;;;13.43;5.43;;;;;;;18.52;100.00;100934.22;5008860;28;20493;-68
2022/09/11 03:36:33;;;;;;;16.80;4.80;;;;;;;18.58;100.00;100940.03;5008529;28;20528;-70
2022/09/11 03:39:00;;;;;;;11.65;5.10;;;;;;;18.60;100.00;100932.22;5021404;28;20097;-68
2022/09/11 03:41:25;;;;;;;16.75;4.57;;;;;;;18.61;100.00;100939.22;4999667;28;20052;-69
2022/09/11 03:43:51;;;;;;;16.42;5.68;;;;;;;18.62;100.00;100946.97;5026873;28;20025;-69
2022/09/11 03:46:17;;;;;;;14.43;5.55;;;;;;;18.62;100.00;100940.78;5006896;28;20524;-69
2022/09/11 03:48:45;;;;;;;15.45;4.85;;;;;;;18.57;100.00;100943.91;5030313;28;20037;-69
2022/09/11 03:51:13;;;;;;;15.60;5.50;;;;;;;18.51;100.00;100937.31;5009559;28;20520;-69
2022/09/11 03:53:40;;;;;;;17.27;5.03;;;;;;;18.53;100.00;100946.66;5012407;28;20040;-68
2022/09/11 03:56:06;;;;;;;14.27;4.85;;;;;;;18.55;100.00;100941.59;5012010;28;20033;-68
2022/09/11 03:58:39;;;;;;;11.90;3.90;;;;;;;18.53;100.00;100943.16;5014730;28;20075;-69
2022/09/11 04:01:13;;;;;;;10.38;4.15;;;;;;;18.51;100.00;100931.88;4996199;28;20037;-68
2022/09/11 04:03:40;;;;;;;13.95;4.50;;;;;;;18.50;100.00;100927.59;5011898;28;20177;-70
2022/09/11 04:06:09;;;;;;;12.63;4.18;;;;;;;18.50;100.00;100939.31;5012395;28;20060;-68
2022/09/11 04:08:35;;;;;;;13.85;4.38;;;;;;;18.48;100.00;100932.69;5012442;28;20022;-68
2022/09/11 04:11:04;;;;;;;12.32;4.07;;;;;;;18.44;100.00;100924.53;5010994;28;20076;-70
2022/09/11 04:13:34;;;;;;;13.15;4.63;;;;;;;18.34;100.00;100930.81;5011550;28;20045;-69
2022/09/11 04:16:06;;;;;;;9.50;4.18;;;;;;;18.31;100.00;100937.03;5011182;28;20033;-69
2022/09/11 04:18:36;;;;;;;13.82;4.45;;;;;;;18.34;100.00;100930.03;5011333;28;20036;-68
2022/09/11 04:21:09;;;;;;;11.00;3.78;;;;;;;18.37;100.00;100937.41;5012599;28;20041;-68
2022/09/11 04:23:35;;;;;;;8.98;4.10;;;;;;;18.31;100.00;100936.28;5016457;28;20060;-69
2022/09/11 04:26:01;;;;;;;11.57;3.80;;;;;;;18.36;100.00;100939.38;5006914;28;20067;-70
2022/09/11 04:28:30;;;;;;;10.50;4.15;;;;;;;18.42;100.00;100947.91;5011509;28;20104;-69
2022/09/11 04:31:01;;;;;;;9.27;4.10;;;;;;;18.46;100.00;100945.94;5013245;28;20045;-68
2022/09/11 04:33:29;;;;;;;11.93;4.07;;;;;;;18.42;100.00;100950.63;5005091;28;20022;-68
2022/09/11 04:35:54;;;;;;;12.65;4.43;;;;;;;18.48;100.00;100958.03;5009869;28;20071;-69
2022/09/11 04:38:22;;;;;;;6.97;3.15;;;;;;;18.48;100.00;100960.75;5022278;28;20489;-68
2022/09/11 04:40:48;;;;;;;10.95;3.75;;;;;;;18.55;100.00;100965.38;5031649;28;20498;-69
2022/09/11 04:43:16;;;;;;;8.15;3.50;;;;;;;18.53;100.00;100960.31;5025143;28;20087;-68
2022/09/11 04:45:43;;;;;;;12.80;3.92;;;;;;;18.48;100.00;100957.25;5014630;28;20167;-68
2022/09/11 04:48:10;;;;;;;6.38;3.08;;;;;;;18.40;100.00;100966.63;5011336;28;20037;-69
2022/09/11 04:50:36;;;;;;;12.38;3.72;;;;;;;18.33;100.00;100961.22;5007081;28;20033;-69
2022/09/11 04:53:19;;;;;;;7.80;3.00;;;;;;;18.25;100.00;100968.66;5015941;28;20094;-68
2022/09/11 04:55:45;;;;;;;7.10;3.10;;;;;;;18.27;100.00;100973.72;5009689;28;20068;-69
2022/09/11 04:58:12;;;;;;;7.32;2.72;;;;;;;18.14;100.00;100967.94;5032889;28;20033;-68
2022/09/11 05:00:38;;;;;;;9.68;3.33;;;;;;;18.16;100.00;100965.59;5008808;28;20126;-69
2022/09/11 05:03:03;;;;;;;8.20;3.15;;;;;;;18.09;100.00;100970.28;4999449;28;20509;-69
2022/09/11 05:05:29;;;;;;;12.18;3.85;;;;;;;18.09;100.00;100970.28;5018945;28;20151;-70
2022/09/11 05:07:54;;;;;;;10.45;3.50;;;;;;;18.06;100.00;100971.09;5030051;28;20041;-69
2022/09/11 05:10:20;;;;;;;8.68;3.30;;;;;;;18.08;100.00;100979.66;5014038;28;20120;-68
2022/09/11 05:12:46;;;;;;;9.95;3.50;;;;;;;18.12;100.00;100977.69;5008029;28;20712;-69
2022/09/11 05:15:11;;;;;;;9.32;2.95;;;;;;;18.18;100.00;100989.72;5015166;28;20037;-69
2022/09/11 05:17:38;;;;;;;10.50;3.65;;;;;;;18.24;100.00;100990.84;4993857;28;20517;-68
2022/09/11 05:20:05;;;;;;;14.65;4.20;;;;;;;18.30;100.00;101000.19;5008865;28;20033;-69
2022/09/11 05:22:30;;;;;;;7.72;3.28;;;;;;;18.35;100.00;100989.63;5012215;28;20032;-70
2022/09/11 05:24:57;;;;;;;8.18;3.45;;;;;;;18.23;100.00;100994.78;4997710;28;20025;-69
2022/09/11 05:27:24;;;;;;;13.52;3.38;;;;;;;18.26;100.00;100988.50;5009781;28;20493;-70
2022/09/11 05:29:49;;;;;;;10.77;3.35;;;;;;;18.21;100.00;100986.22;5005052;28;20026;-68
2022/09/11 05:32:15;;;;;;;9.93;3.00;;;;;;;18.18;100.00;100993.22;5006053;28;20037;-70
2022/09/11 05:34:40;;;;;;;6.80;2.75;;;;;;;18.21;100.00;100997.91;5009919;28;20537;-71
2022/09/11 05:37:09;;;;;;;9.13;3.25;;;;;;;18.24;100.00;101002.53;5030032;28;20037;-71
2022/09/11 05:39:41;;;;;;;8.15;3.08;;;;;;;18.33;100.00;101007.56;4992720;28;20702;-69
2022/09/11 05:42:08;;;;;;;9.10;3.30;;;;;;;18.35;100.00;101013.41;5013377;28;20046;-70
2022/09/11 05:44:37;;;;;;;6.50;2.92;;;;;;;18.36;100.00;101010.28;5026786;28;20021;-71
2022/09/11 05:47:03;;;;;;;8.02;2.97;;;;;;;18.30;100.00;101017.31;5014937;28;20095;-71
2022/09/11 05:49:29;;;;;;;7.88;2.90;;;;;;;18.32;100.00;101019.66;5012637;28;20029;-71
2022/09/11 05:51:56;;;;;;;6.97;3.10;;;;;;;18.33;100.00;101029.41;5011364;28;20489;-70
2022/09/11 05:54:24;;;;;;;9.60;3.42;;;;;;;18.39;100.00;101025.84;5008439;28;20033;-68
2022/09/11 05:56:51;;;;;;;7.80;3.20;;;;;;;18.41;100.00;101025.44;5024866;28;20617;-71
2022/09/11 05:59:22;;;;;;;9.30;2.50;;;;;;;18.38;100.00;101028.97;5011102;28;20035;-70
2022/09/11 06:01:49;;;;;;;8.75;3.10;;;;;;;18.32;100.00;101030.56;5004945;28;20160;-68
2022/09/11 06:04:26;;;;;;;11.35;2.90;;;;;;;18.34;100.00;101033.66;5004251;28;20033;-70
2022/09/11 06:06:52;;;;;;;10.73;3.50;;;;;;;18.31;100.00;101042.66;5011386;28;20087;-69
2022/09/11 06:09:18;;;;;;;7.95;2.83;;;;;;;18.42;100.00;101040.63;5014036;28;20045;-70
2022/09/11 06:11:43;;;;;;;6.78;2.88;;;;;;;18.51;100.00;101046.44;5016088;28;20052;-68
2022/09/11 06:14:12;;;;;;;12.25;3.75;;;;;;;18.51;100.00;101046.44;5013795;28;20029;-68
2022/09/11 06:16:37;;;;;;;6.47;2.75;;;;;;;18.54;100.00;101051.13;5013863;28;20556;-68
2022/09/11 06:19:09;;;;;;;8.65;2.85;;;;;;;18.62;100.00;101052.63;5013304;28;20044;-67
2022/09/11 06:21:35;;;;;;;8.38;3.33;;;;;;;18.65;100.00;101051.84;5034657;28;20068;-68
2022/09/11 06:24:27;;;;;;;8.15;3.17;;;;;;;18.70;100.00;101056.84;5011804;28;20133;-67
2022/09/11 06:26:54;;;;;;;12.52;3.63;;;;;;;18.73;100.00;101054.13;4987638;28;20046;-67
2022/09/11 06:29:21;;;;;;;11.90;3.17;;;;;;;18.78;100.00;101061.09;4971208;28;20136;-67
2022/09/11 06:31:50;;;;;;;11.10;3.58;;;;;;;18.83;100.00;101060.69;4977563;28;20057;-68
2022/09/11 06:34:18;;;;;;;8.75;3.08;;;;;;;18.85;100.00;101058.34;4975533;28;20038;-69
2022/09/11 06:36:44;;;;;;;10.57;3.50;;;;;;;18.89;100.00;101059.09;4973877;28;20401;-67
2022/09/11 06:39:10;;;;;;;11.10;3.25;;;;;;;18.94;100.00;101055.91;4989749;28;20576;-68
2022/09/11 06:41:37;;;;;;;9.40;3.67;;;;;;;18.91;100.00;101056.75;4965352;28;20057;-69
2022/09/11 06:44:08;;;;;;;9.25;3.30;;;;;;;18.93;100.00;101059.81;4986889;28;20046;-67
2022/09/11 06:46:35;;;;;;;7.35;3.20;;;;;;;18.96;100.00;101064.50;4989191;28;20083;-67
2022/09/11 06:49:01;;;;;;;10.52;3.60;;;;;;;19.01;100.00;101071.47;4974321;28;20434;-67
2022/09/11 06:51:27;;;;;;;10.20;3.45;;;;;;;19.04;100.00;101066.00;4992119;28;20038;-69
2022/09/11 06:53:56;;;;;;;7.40;2.88;;;;;;;19.11;100.00;101068.66;4974384;28;20035;-67
2022/09/11 06:56:23;;;;;;;8.32;3.53;;;;;;;19.25;100.00;101059.56;4990739;28;20033;-68
2022/09/11 06:58:49;;;;;;;9.10;3.53;;;;;;;19.41;99.68;101062.59;4978096;28;20022;-69
2022/09/11 07:01:17;;;;;;;9.60;2.95;;;;;;;19.51;99.29;101065.22;4970630;28;20047;-67
2022/09/11 07:03:47;;;;;;;8.65;3.20;;;;;;;19.57;98.77;101065.53;5001931;28;20036;-68
2022/09/11 07:06:17;;;;;;;7.07;2.88;;;;;;;19.65;97.93;101062.34;5028310;28;20045;-68
2022/09/11 07:08:53;;;;;;;9.33;3.20;;;;;;;19.70;97.50;101067.34;5015235;28;20029;-68
2022/09/11 07:11:19;;;;;;;6.53;3.13;;;;;;;19.73;96.86;101072.03;5009666;28;20299;-67
2022/09/11 07:13:46;;;;;;;7.20;2.72;;;;;;;19.71;96.38;101065.41;5020345;28;20768;-70
2022/09/11 07:16:13;;;;;;;6.15;2.70;;;;;;;19.62;96.03;101068.63;5020304;28;20030;-69
2022/09/11 07:18:42;;;;;;;4.03;2.33;;;;;;;19.62;96.18;101078.78;5013409;28;20496;-68
2022/09/11 07:21:16;;;;;;;6.43;2.83;;;;;;;19.62;96.31;101073.31;5008515;28;20055;-69
2022/09/11 07:23:47;;;;;;;8.40;2.95;;;;;;;19.61;96.26;101083.47;5003126;28;20025;-68
2022/09/11 07:26:15;;;;;;;7.13;2.60;;;;;;;19.60;96.01;101081.16;4994793;28;20041;-67
2022/09/11 07:28:40;;;;;;;4.60;2.72;;;;;;;19.62;96.17;101085.03;5012215;28;20425;-69
2022/09/11 07:31:09;;;;;;;4.50;2.50;;;;;;;19.61;95.83;101088.94;5030602;28;20041;-68
2022/09/11 07:33:39;;;;;;;4.00;1.90;;;;;;;19.59;95.71;101088.56;5012578;28;20140;-67
2022/09/11 07:36:10;;;;;;;7.72;2.25;;;;;;;19.56;95.85;101092.13;5010180;28;20527;-67
2022/09/11 07:38:39;;;;;;;4.47;2.15;;;;;;;19.55;95.95;101079.63;4997610;28;20095;-67
2022/09/11 07:41:07;;;;;;;5.03;2.20;;;;;;;19.54;95.80;101085.50;5030242;28;20390;-67
2022/09/11 07:43:35;;;;;;;4.38;2.03;;;;;;;19.55;95.80;101082.34;5013871;28;20033;-67
2022/09/11 07:46:01;;;;;;;4.03;1.77;;;;;;;19.66;95.78;101085.00;5021846;28;20072;-67
2022/09/11 07:48:28;;;;;;;4.68;2.10;;;;;;;19.82;95.62;101078.97;5006385;28;20045;-68
2022/09/11 07:50:58;;;;;;;3.75;2.30;;;;;;;20.09;95.33;101097.00;5032336;28;20394;-68
2022/09/11 07:53:24;;;;;;;3.08;1.95;;;;;;;20.47;94.70;101089.56;4999712;28;20397;-70
2022/09/11 07:55:50;;;;;;;4.13;1.55;;;;;;;20.66;93.59;101086.16;5012392;28;20144;-72
2022/09/11 07:58:17;;;;;;;5.03;1.85;;;;;;;20.87;92.59;101099.53;4990979;28;20277;-70
2022/09/11 08:00:44;;;;;;;3.00;1.40;;;;;;;20.77;88.88;101096.97;5027612;28;20570;-69
2022/09/11 08:03:16;;;;;;;2.75;1.58;;;;;;;20.74;89.01;101100.53;5009028;28;20038;-69
2022/09/11 08:05:42;;;;;;;3.35;1.55;;;;;;;20.69;88.66;101102.53;5029222;28;20040;-69
2022/09/11 08:08:10;;;;;;;2.13;1.10;;;;;;;20.65;88.92;101109.25;5010608;28;20025;-69
2022/09/11 08:10:38;;;;;;;2.20;1.85;;;;;;;20.62;88.90;101108.13;5035137;28;20032;-68
2022/09/11 08:13:04;;;;;;;2.22;1.33;;;;;;;20.60;88.88;101115.19;5025031;28;20033;-69
2022/09/11 08:15:31;;;;;;;1.73;1.05;;;;;;;20.55;88.46;101118.38;5007860;28;20033;-68
2022/09/11 08:17:57;;;;;;;1.38;1.00;;;;;;;20.45;88.42;101114.59;5006285;28;20033;-68
2022/09/11 08:20:23;;;;;;;2.22;1.10;;;;;;;20.47;88.93;101125.13;5013239;28;20022;-69
2022/09/11 08:22:48;;;;;;;1.38;0.90;;;;;;;20.43;88.80;101127.91;5013257;28;20029;-69
2022/09/11 08:25:14;;;;;;;2.35;1.02;;;;;;;20.39;88.75;101126.41;5008701;28;20025;-69
2022/09/11 08:27:39;;;;;;;1.90;1.10;;;;;;;20.32;88.96;101119.06;5012867;28;20359;-69
2022/09/11 08:30:06;;;;;;;1.80;1.20;;;;;;;20.27;89.26;101132.41;5010445;28;20111;-69
2022/09/11 08:32:31;;;;;;;1.17;1.08;;;;;;;20.27;89.79;101132.41;5007922;28;20037;-69
2022/09/11 08:34:57;;;;;;;2.13;0.90;;;;;;;20.34;90.12;101130.34;5005840;28;20541;-68
2022/09/11 08:37:22;;;;;;;3.45;1.27;;;;;;;20.43;90.27;101135.34;5010653;28;20029;-69
2022/09/11 08:39:48;;;;;;;1.38;1.00;;;;;;;20.53;89.89;101137.19;5010869;28;20037;-69
2022/09/11 08:42:16;;;;;;;3.83;1.20;;;;;;;20.56;89.78;101139.88;4997662;28;20052;-69
2022/09/11 08:44:45;;;;;;;1.73;1.27;;;;;;;20.55;89.28;101137.53;5030553;28;20084;-68
2022/09/11 08:47:32;;;;;;;3.53;0.90;;;;;;;20.69;88.88;101138.13;5012097;28;20493;-69
2022/09/11 08:50:02;;;;;;;2.17;1.17;;;;;;;21.01;88.21;101134.97;5027397;28;20025;-69
2022/09/11 08:52:31;;;;;;;1.67;1.10;;;;;;;21.43;87.19;101142.53;5008760;28;20034;-69
2022/09/11 08:54:58;;;;;;;2.03;1.27;;;;;;;21.87;84.24;101151.63;5009982;28;20029;-69
2022/09/11 08:57:42;;;;;;;1.33;0.98;;;;;;;22.31;82.04;101154.69;5016963;28;20490;-69
2022/09/11 09:00:19;;;;;;;2.08;1.10;;;;;;;22.59;79.76;101158.09;5010313;28;20041;-69
2022/09/11 09:03:16;;;;;;;1.65;1.17;;;;;;;22.62;78.07;101160.75;4992593;28;20393;-69
2022/09/11 09:06:04;;;;;;;1.20;0.90;;;;;;;22.74;77.05;101157.38;5000663;28;20061;-69
2022/09/11 09:08:57;;;;;;;1.08;0.82;;;;;;;22.81;76.71;101168.19;4993063;28;20375;-69
2022/09/11 09:11:38;;;;;;;1.23;0.75;;;;;;;22.85;74.46;101165.38;4987154;28;20628;-69
2022/09/11 09:14:28;;;;;;;0.85;0.68;;;;;;;22.82;73.54;101172.47;5009646;28;20047;-68
2022/09/11 09:17:13;;;;;;;0.60;0.50;;;;;;;22.95;73.25;101167.13;5009549;28;20033;-69
2022/09/11 09:19:54;;;;;;;0.90;0.73;;;;;;;22.96;73.67;101165.91;5001772;28;20432;-70
2022/09/11 09:22:22;;;;;;;1.33;0.75;;;;;;;22.88;73.85;101161.78;5014333;28;20567;-69
2022/09/11 09:24:52;;;;;;;0.90;0.70;;;;;;;22.82;73.74;101164.25;4998988;28;20025;-69
2022/09/11 09:27:32;;;;;;;0.90;0.70;;;;;;;22.86;75.61;101161.44;5008672;28;20029;-68
2022/09/11 09:30:01;;;;;;;1.10;0.70;;;;;;;22.92;75.74;101160.50;5004094;23;20122;-68
2022/09/11 09:32:41;;;;;;;1.08;0.95;;;;;;;22.87;75.37;101163.75;5013193;28;20706;-67
2022/09/11 09:35:18;;;;;;;0.88;0.68;;;;;;;22.75;74.16;101161.66;5038043;28;20033;-68
2022/09/11 09:37:44;;;;;;;0.95;0.77;;;;;;;22.56;73.91;101151.44;5025099;28;20029;-68
2022/09/11 09:40:16;;;;;;;1.33;0.73;;;;;;;22.47;74.91;101156.75;5010351;28;20096;-69
2022/09/11 09:42:56;;;;;;;0.65;0.63;;;;;;;22.47;74.52;101156.75;5015653;28;20120;-68
2022/09/11 09:45:50;;;;;;;1.08;0.60;;;;;;;22.47;74.83;101147.72;5022745;28;20049;-68
2022/09/11 09:48:16;;;;;;;1.25;0.88;;;;;;;22.68;75.37;101159.06;5020554;28;20183;-69
2022/09/11 09:50:45;;;;;;;1.20;0.52;;;;;;;22.89;73.05;101155.06;5022052;28;20060;-67
2022/09/11 09:53:19;;;;;;;1.00;0.75;;;;;;;23.15;71.65;101160.34;5010686;28;20033;-69
2022/09/11 09:55:46;;;;;;;0.90;0.80;;;;;;;23.28;70.77;101158.50;5001332;28;20040;-68
2022/09/11 09:58:13;;;;;;;0.63;0.50;;;;;;;23.35;71.02;101159.53;5025064;28;20033;-68
2022/09/11 10:00:40;;;;;;;1.30;0.82;;;;;;;23.38;71.24;101167.72;5018294;28;20033;-67
2022/09/11 10:03:18;;;;;;;2.80;0.70;;;;;;;23.35;71.32;101160.31;5035747;28;20110;-68
2022/09/11 10:05:44;;;;;;;0.60;0.60;;;;;;;23.23;71.22;101164.50;5027304;28;20037;-67
2022/09/11 10:08:32;;;;;;;0.80;0.50;;;;;;;23.06;71.79;101162.16;5020878;28;20312;-67
2022/09/11 10:11:03;;;;;;;1.13;0.80;;;;;;;22.96;72.18;101169.44;5022412;28;20072;-69
2022/09/11 10:13:41;;;;;;;0.60;0.57;;;;;;;22.97;73.08;101171.00;5022906;28;20447;-68
2022/09/11 10:16:33;;;;;;;0.90;0.60;;;;;;;23.04;71.21;101170.03;5003752;28;20037;-68
2022/09/11 10:18:59;;;;;;;1.00;0.55;;;;;;;23.24;71.74;101163.31;5017249;28;20050;-68
2022/09/11 10:21:32;;;;;;;0.68;0.50;;;;;;;23.43;70.54;101167.19;5020461;28;20035;-68
2022/09/11 10:24:00;;;;;;;1.27;0.52;;;;;;;23.54;68.73;101164.19;5022029;28;20025;-67
2022/09/11 10:26:28;;;;;;;0.50;0.50;;;;;;;23.52;67.79;101172.09;5023666;28;20073;-68
2022/09/11 10:29:00;;;;;;;0.50;0.50;;;;;;;23.38;68.74;101164.97;5013185;28;20036;-68
2022/09/11 10:31:25;;;;;;;1.00;0.50;;;;;;;23.40;69.81;101167.28;5020172;28;20037;-67
2022/09/11 10:33:59;;;;;;;0.88;0.52;;;;;;;23.45;69.02;101166.75;5025077;28;20235;-68
2022/09/11 10:36:27;;;;;;;0.57;0.52;;;;;;;23.63;68.61;101161.59;5011083;28;20060;-67
2022/09/11 10:38:56;;;;;;;1.13;0.60;;;;;;;23.82;68.82;101161.50;5012357;28;20126;-68
2022/09/11 10:41:24;;;;;;;0.60;0.50;;;;;;;24.00;67.86;101158.28;5030471;28;20029;-68
2022/09/11 10:44:01;;;;;;;0.70;0.50;;;;;;;24.17;66.91;101162.56;5007152;28;20033;-68
2022/09/11 10:46:41;;;;;;;0.45;0.40;;;;;;;24.36;65.97;101160.84;5017602;28;20037;-68
2022/09/11 10:49:15;;;;;;;0.50;0.50;;;;;;;24.32;64.69;101149.16;5001493;28;20112;-68
2022/09/11 10:51:42;;;;;;;0.60;0.50;;;;;;;24.26;64.47;101157.19;5003204;28;20389;-68
2022/09/11 10:54:45;;;;;;;0.95;0.52;;;;;;;24.39;64.87;101160.00;5023445;28;20037;-67
2022/09/11 10:57:43;;;;;;;1.35;0.80;;;;;;;24.65;63.66;101159.59;4998192;28;20432;-68
2022/09/11 11:00:18;;;;;;;0.40;0.40;;;;;;;24.95;63.19;101152.84;5020438;28;20045;-68
2022/09/11 11:02:47;;;;;;;0.57;0.50;;;;;;;25.30;61.45;101157.22;5030256;28;20033;-68
2022/09/11 11:05:32;;;;;;;0.85;0.45;;;;;;;25.45;60.78;101160.31;5035797;28;20052;-68
2022/09/11 11:08:03;;;;;;;0.57;0.45;;;;;;;25.29;60.89;101154.91;5031215;28;20048;-68
2022/09/11 11:10:31;;;;;;;;;;;;;;;25.17;61.10;101164.72;5023128;28;20091;-68
2022/09/11 11:13:12;;;;;;;0.82;0.43;;;;;;;25.01;60.83;101159.31;5034122;28;19921;-68
2022/09/11 11:16:05;;;;;;;0.47;0.47;;;;;;;25.05;60.87;101159.97;5020140;28;20428;-68
2022/09/11 11:18:55;;;;;;;0.50;0.40;;;;;;;25.05;60.03;101166.28;5015801;28;20091;-68
2022/09/11 11:21:46;;;;;;;0.50;0.35;;;;;;;24.95;58.98;101156.34;5020298;28;20798;-68
2022/09/11 11:24:36;;;;;;;0.30;0.30;;;;;;;24.72;58.90;101153.91;5022873;28;20029;-67
2022/09/11 11:27:27;;;;;;;0.68;0.50;;;;;;;24.49;60.57;101147.88;5004794;28;20050;-68
2022/09/11 11:29:59;;;;;;;0.83;0.50;;;;;;;24.35;62.52;101151.81;5005223;28;20116;-68
2022/09/11 11:32:34;;;;;;;0.70;0.57;;;;;;;24.31;62.77;101153.91;4998772;28;20041;-68
2022/09/11 11:35:18;;;;;;;0.40;0.35;;;;;;;24.45;63.28;101153.50;4999359;28;20669;-69
2022/09/11 11:37:46;;;;;;;0.20;0.20;;;;;;;24.78;61.92;101157.66;5020302;28;20042;-67